MDT,Max TemperatureF,Mean TemperatureF,Min TemperatureF,Max Dew PointF,MeanDew PointF,Min DewpointF,Max Humidity, Mean Humidity, Min Humidity, Max Sea Level PressureIn, Mean Sea Level PressureIn, Min Sea Level PressureIn, Max VisibilityMiles, Mean VisibilityMiles, Min VisibilityMiles, Max Wind SpeedMPH, Mean Wind SpeedMPH, Max Gust SpeedMPH,PrecipitationIn, CloudCover, Events, WindDirDegrees
2013-7-1,89,74,58,52,43,36,43,31,18,30.32,30.11,30.01,10,9,1,18,8,21,0.17,2,Rain-Thunderstorm,82
2013-7-2,89,74,58,43,36,22,48,29,10,30.25,30.03,29.94,10,10,10,28,7,31,0.00,1,,70
2013-7-3,88,74,59,49,35,21,27,21,15,30.19,29.96,29.85,10,10,9,28,7,48,T,3,Rain-Thunderstorm,8
2013-7-4,88,73,57,55,48,41,84,53,22,30.12,29.91,29.76,10,10,3,30,8,36,0.01,3,Rain-Thunderstorm,169
2013-7-5,86,70,53,54,45,30,93,56,18,30.10,29.81,29.69,10,10,9,29,8,37,0.00,2,,275
2013-7-6,85,71,56,49,40,33,57,37,17,30.10,29.86,29.79,10,10,10,40,8,51,T,1,Rain-Thunderstorm,235
2013-7-7,84,68,52,50,44,34,77,47,17,30.01,29.94,29.88,10,10,10,37,10,46,0.00,0,,212
2013-7-8,86,69,52,45,42,31,77,46,14,30.23,30.01,29.95,10,10,10,31,8,39,0.00,1,,248
2013-7-9,90,74,57,43,36,28,55,33,11,30.27,30.04,29.98,10,10,9,32,5,55,T,1,Rain,292
2013-7-10,92,76,59,37,28,16,39,23,6,30.06,29.95,29.84,10,10,10,17,4,22,0.00,0,,187
2013-7-11,92,76,60,43,27,19,37,23,8,29.85,29.80,29.72,10,10,10,32,9,38,0.00,1,,259
2013-7-12,74,66,57,54,47,43,80,59,38,30.01,29.93,29.83,10,10,6,17,9,21,T,5,Rain,227
2013-7-13,82,69,56,54,48,43,67,49,30,30.31,30.04,29.96,10,10,5,38,7,47,0.02,3,Rain-Thunderstorm,218
2013-7-14,88,70,52,47,39,24,77,44,11,30.21,30.04,29.92,10,10,10,21,6,25,0.00,0,,280
2013-7-15,89,74,58,45,38,30,55,35,14,29.97,29.89,29.80,10,10,10,16,5,21,0.00,0,,257
2013-7-16,93,79,64,49,42,30,48,30,11,30.26,29.91,29.83,10,10,10,26,12,33,T,1,Thunderstorm,75
2013-7-17,90,74,57,50,46,39,72,45,17,30.34,30.04,29.96,10,10,10,31,9,43,0.00,1,,349
2013-7-18,90,77,63,52,41,26,60,36,12,30.11,30.01,29.91,10,10,10,17,8,24,T,3,,331
2013-7-19,91,74,56,46,33,18,51,30,8,30.03,29.93,29.83,10,10,10,20,8,26,0.00,0,,328
2013-7-20,92,76,59,35,22,13,30,18,6,30.09,29.85,29.75,10,10,10,26,9,33,0.00,0,,295
2013-7-21,92,76,59,24,17,9,20,13,6,29.83,29.79,29.75,10,10,10,33,12,61,0.00,0,,280
2013-7-22,92,74,55,18,11,5,19,12,4,29.91,29.86,29.82,10,10,10,31,12,40,0.00,0,,272
2013-7-23,92,75,58,19,9,0,16,10,3,29.96,29.91,29.86,10,10,10,23,8,30,0.00,0,,277
2013-7-24,85,74,62,46,37,21,44,30,16,30.22,29.97,29.87,10,10,10,26,11,33,0.00,1,,112
2013-7-25,84,69,54,49,43,36,64,42,20,30.31,30.06,29.93,10,10,6,28,10,36,0.01,2,Rain-Thunderstorm,99
2013-7-26,89,70,51,46,36,25,67,39,11,30.37,30.08,29.95,10,10,10,18,6,26,0.00,1,,148
2013-7-27,80,70,59,50,38,28,69,44,18,30.02,29.95,29.90,10,10,10,29,9,35,T,4,,269
2013-7-28,84,68,52,50,41,29,83,49,15,30.04,29.86,29.76,10,10,10,31,11,41,T,3,,259
2013-7-29,80,67,54,41,39,33,55,37,19,30.23,29.96,29.84,10,10,10,36,8,43,T,2,Rain,265
2013-7-30,85,68,50,48,42,34,71,45,18,30.34,30.13,30.05,10,10,10,30,7,39,T,2,Rain-Thunderstorm,237
2013-7-31,87,70,52,43,37,30,66,40,14,30.18,30.08,29.96,10,10,10,15,6,23,0.00,0,,160